North Caldwell, New Jersey
Current Conditions -  °F | °C
As of 9:53 AM on Friday 19 Dec 2014 (Local Time) from KCDW Reporting Station
Overcast Overcast  
Wind Chill: 26°   Ceiling: 3200
Heat Index: 34°   Visibility: 10mi
Dew Point: 20°   Wind: 10mph
Humidity: 56%   Direction: 340°NNW
Pressure: 30.08"   Gusts: 18mph
Location:  40.852°N, 74.2818°W
Report Text: KCDW 191453Z AUTO 34009G16KT 10SM OVC032 01/M07 A3008 RMK AO2 SLP193 T00111067 51024 TSNO
Loading
Personal Weather Stations






























Interactive Weather Map New forecast layout! Learn more

10-Day Weather Forecast

Advertisements
Track Severe Weather on mobile